Create Custom Reports and Graphics: Custom Report

Squaw-Red Dog 6200'

Current Conditions

5/30/20 8:00 PM (-07:00)
Updated Every 15 Minutes
Temp 46.7 °F   17.6
RH 74 %   20
Dew Pt 38.7 °F   8.3
Wet Bulb 43.2 °F   11.6
Wind Dir N | 5 °
Wind Spd 7.0 mph   4.6
Wind Gust 14.6 mph   10.2
WindChill 43.0 °F   21.3
Daily Min Temp 45.7 °F   3.2
Daily Max Temp 60.8 °F   23.5
Latest Rain 0.00 In
Daily Rain 0.00 In
New Snow 81.0 in
SnowDepth 84.7 in

Last 24 Hours

Squaw-Red Dog 6200'

Hourly Data | America/Los_Angeles
as of 5/30/20 8:07 PM PDT
Date & Time Temp (°F) RH (%) Dew Pt (°F) Wet Bulb (°F) Wind Dir (°) Wind Spd (mph) Wind Gust (mph) Latest Rain (In) New Snow (in) SnowDepth (in) Daily Min Temp (°F) Daily Max Temp (°F) Daily Rain (In)
5/30/20 - 2000 46.7 74 38.7 43.2 N | 2 7.1 17.6 0.00 81.0 84.7 45.7 60.8 0.00
5/30/20 - 1900 47.1 67 36.7 42.5 NNE | 12 10.0 18.5 0.00 80.5 75.3 45.7 60.8 0.00
5/30/20 - 1800 48.0 65 36.7 43.0 NNE | 12 7.6 14.3 0.00 80.0 77.7 45.7 60.8 0.00
5/30/20 - 1700 - 74 - - N | 11 8.2 18.7 0.00 80.9 77.3 45.7 60.8 0.00
5/30/20 - 1600 - 72 - - N | 4 6.3 16.1 0.00 79.3 72.0 45.9 60.8 0.00
5/30/20 - 1500 - 72 - - N | 5 4.1 13.7 0.00 82.4 63.8 45.9 60.8 0.00
5/30/20 - 1400 48.9 78 42.2 45.9 N | 6 6.1 15.8 0.00 79.4 76.1 45.9 60.8 0.00
5/30/20 - 1300 52.1 57 37.5 45.3 NNE | 19 9.6 24.5 0.00 91.4 84.9 45.9 60.8 0.00
5/30/20 - 1200 51.1 63 38.8 45.4 N | 9 9.4 20.7 0.00 82.8 76.5 45.9 60.8 0.00
5/30/20 - 1100 51.1 69 41.3 46.6 NNE | 19 7.7 16.3 0.00 78.5 64.4 45.9 60.8 0.00
5/30/20 - 1000 47.3 82 42.0 45.1 N | 5 5.9 18.0 0.00 77.7 78.1 45.9 60.8 0.00
5/30/20 - 0900 46.7 82 41.5 44.6 NNE | 16 10.7 25.4 0.00 76.9 64.0 45.9 60.8 0.00
5/30/20 - 0800 46.8 78 40.3 44.0 N | 4 12.9 23.6 0.00 78.6 63.0 46.4 60.8 0.00
5/30/20 - 0700 50.0 82 44.8 47.8 N | 1 13.2 22.0 0.00 76.0 0.4 49.9 60.8 0.00
5/30/20 - 0600 52.7 85 48.4 51.1 N | 360 8.7 16.3 0.00 77.0 - 52.2 60.8 0.00
5/30/20 - 0500 55.2 80 49.3 52.7 N | 357 8.6 14.0 0.00 78.4 63.5 52.2 60.8 0.00
5/30/20 - 0400 55.6 82 50.2 53.4 N | 355 6.0 14.3 0.00 78.6 76.0 52.2 60.8 0.00
5/30/20 - 0300 52.3 87 48.5 51.0 SW | 216 1.8 5.7 0.00 77.6 60.0 52.3 60.8 0.00
5/30/20 - 0200 57.9 80 51.9 55.4 N | 351 4.0 11.0 0.00 76.6 59.8 54.4 60.8 0.00
5/30/20 - 0100 60.4 70 50.8 55.6 N | 4 6.8 15.5 0.00 78.1 62.4 54.4 60.8 0.00
5/30/20 - 0000 55.6 76 48.3 52.2 WSW | 258 1.5 5.1 0.00 78.8 63.0 42.5 84.3 0.00
5/29/20 - 2300 58.6 62 45.9 52.2 W | 273 1.3 4.5 0.00 78.6 60.8 42.5 84.3 0.00
5/29/20 - 2200 - 68 - - W | 274 2.6 9.8 0.00 79.3 77.3 42.5 84.3 0.00
5/29/20 - 2100 63.6 55 47.0 54.5 W | 274 3.0 8.5 0.00 83.0 76.5 42.5 84.3 0.00
5/29/20 - 2000 64.3 53 47.0 54.8 NW | 304 3.4 11.3 0.00 83.8 59.5 42.5 84.3 0.00
Max 64.3 87 51.9 55.6 - 13.2 25.4 0.00 91.4 84.9 54.4 84.3 0.00
Avg 53.0 73 44.2 48.9 - 6.7 15.3 0.00 79.8 67.4 - - -
Min 46.7 53 36.7 42.5 - 1.3 4.5 0.00 76.0 0.4 42.5 60.8 0.00
Total - - - - - - - 0.00 - - - - -

Last 30 Days

Squaw-Red Dog 6200'

Daily Data | America/Los_Angeles
as of 5/30/20 8:07 PM PDT
Date Daily Max Temp (°F) Max Temp Time Daily Min Temp (°F) Min Temp Time Daily Rain (In) New Snow (in) SnowDepth (in) Wind Spd (mph) Daily Max Wind (mph) Max Wind Time Max Wind Dir (°) Max RH (%) Min RH (%) Wet Bulb (°F) WetB Hrs <28F (hrs) Bat Volt Min Day (V)
5/29/20 84.3 1420 42.5 0602 0.00 78.8 63.0 3.0 19.9 1754 N | 8 83 16 - 0.0 12.5
5/28/20 82.6 1546 40.8 0559 0.00 78.5 76.8 2.8 15.1 1423 N | 10 88 10 49.0 0.0 12.5
5/27/20 78.2 1601 43.8 0552 0.00 79.7 63.6 3.5 18.3 1635 N | 0 98 22 51.5 0.0 12.5
5/26/20 78.8 1434 43.1 0547 0.00 79.6 61.8 3.1 16.8 1417 N | 3 98 28 52.9 0.0 12.5
5/25/20 80.6 1454 36.6 0519 0.00 80.1 62.0 2.8 16.0 1616 N | 1 94 21 48.3 0.0 12.5
5/24/20 73.1 1702 33.1 0550 0.00 81.2 63.5 1.6 10.0 1438 SSW | 200 98 20 43.9 0.0 12.4
5/23/20 66.8 1602 26.9 0515 0.00 88.0 63.9 2.6 13.4 1751 NNW | 332 90 19 38.4 13.1 12.4
5/22/20 53.6 1426 32.1 2354 0.00 78.1 64.5 6.0 22.8 0802 N | 1 80 33 39.4 0.0 12.5
5/21/20 58.9 1345 29.1 0558 0.00 77.3 64.6 3.9 21.4 1214 E | 86 100 27 40.2 0.0 12.4
5/20/20 - 0001 - 0001 0.00 85.8 65.1 4.2 17.6 1318 N | 11 98 57 - 0.0 12.4
5/19/20 57.2 0003 32.5 0453 0.00 84.8 64.5 4.5 19.1 1840 NNW | 336 99 61 - 0.0 12.4
5/18/20 - 1122 32.9 0930 0.00 81.4 64.6 5.3 24.2 0005 NNE | 29 99 70 - 0.0 12.4
5/17/20 50.0 0758 39.6 2256 0.00 83.5 64.7 9.4 29.8 0555 N | 11 97 46 - 0.0 12.5
5/16/20 62.1 1430 37.8 0305 0.00 76.5 63.0 7.7 28.1 2157 NNE | 24 98 31 43.8 0.0 12.5
5/15/20 59.2 1607 30.0 0625 0.00 83.6 64.0 3.1 13.9 1742 NNW | 344 100 34 41.5 0.0 12.5
5/14/20 - 0001 - 0001 0.00 75.8 64.4 3.9 16.0 1503 NNE | 23 93 65 - 0.0 12.4
5/13/20 - 2204 35.6 0607 0.00 82.8 64.1 7.0 22.6 1408 N | 2 91 50 - 0.0 12.5
5/12/20 - 1917 37.1 0001 0.00 83.7 65.1 12.0 36.6 0129 NNE | 15 88 66 - 0.0 12.5
5/11/20 55.5 1331 42.7 2359 0.00 81.7 67.1 10.6 36.5 1939 NNE | 27 67 24 40.0 0.0 12.5
5/10/20 68.3 1126 37.8 0553 0.00 79.4 64.5 4.3 21.4 1434 N | 0 89 31 45.2 0.0 12.5
5/9/20 76.8 1325 36.6 0546 0.00 81.0 64.6 2.4 15.2 1353 NNE | 31 82 15 44.7 0.0 12.5
5/8/20 73.6 1423 31.5 0547 0.00 77.2 63.9 2.2 12.7 1610 NNW | 336 86 10 42.3 0.0 12.5
5/7/20 72.9 1705 30.4 0606 0.00 0.1 64.8 1.5 10.4 1207 SSE | 165 86 14 39.7 0.0 12.4
5/6/20 69.5 1606 38.8 0620 0.00 - 66.3 4.0 18.9 0421 N | 0 68 6 39.7 0.0 12.4
5/5/20 62.2 1043 28.7 0545 0.00 - 67.9 5.0 23.2 1601 NNE | 29 90 16 38.0 2.9 12.4
5/4/20 61.9 1605 25.2 0605 0.00 - 67.2 2.4 12.0 1219 NNE | 21 88 11 35.4 16.6 12.4
5/3/20 55.2 1321 32.3 0001 0.00 - 65.7 6.8 17.5 1653 NE | 54 85 24 38.7 0.0 12.4
5/2/20 53.4 1358 30.5 0610 0.00 - 66.2 8.2 28.0 1422 N | 9 97 32 37.9 0.0 12.4
5/1/20 59.8 1353 31.5 0611 0.00 - 64.0 2.8 12.6 1507 E | 87 98 24 40.1 0.0 12.4
4/30/20 55.3 1451 36.2 0616 0.00 - 66.0 5.9 22.8 1048 NW | 307 98 36 - 0.0 12.5
Max 84.3 - 43.8 - 0.00 88.0 76.8 12.0 36.6 - - 100 70 52.9 16.6 12.5
Avg - - - - - 77.3 65.0 4.7 - - - - - 42.4 - -
Min 50.0 - 25.2 - 0.00 0.1 61.8 1.5 10.0 - - 67 6 35.4 0.0 12.4
Calm: 0.0%
Calm: 0.3%